sensor_id;sensor_type;location;lat;lon;timestamp;P1;durP1;ratioP1;P2;durP2;ratioP2
72109;SDS011;59983;52.010;5.420;2023-08-06T00:00:53;6.55;;;6.05;;
72109;SDS011;59983;52.010;5.420;2023-08-06T00:03:20;7.22;;;6.72;;
72109;SDS011;59983;52.010;5.420;2023-08-06T00:05:47;7.03;;;6.27;;
72109;SDS011;59983;52.010;5.420;2023-08-06T00:08:13;7.25;;;6.65;;
72109;SDS011;59983;52.010;5.420;2023-08-06T00:10:40;8.00;;;7.40;;
72109;SDS011;59983;52.010;5.420;2023-08-06T00:13:07;7.50;;;6.63;;
72109;SDS011;59983;52.010;5.420;2023-08-06T00:15:34;12.27;;;6.00;;
72109;SDS011;59983;52.010;5.420;2023-08-06T00:18:01;8.20;;;7.40;;
72109;SDS011;59983;52.010;5.420;2023-08-06T00:20:27;7.05;;;6.35;;
72109;SDS011;59983;52.010;5.420;2023-08-06T00:22:54;6.65;;;6.13;;
72109;SDS011;59983;52.010;5.420;2023-08-06T00:25:20;6.63;;;5.90;;
72109;SDS011;59983;52.010;5.420;2023-08-06T00:27:47;7.32;;;6.32;;
72109;SDS011;59983;52.010;5.420;2023-08-06T00:30:14;6.27;;;5.90;;
72109;SDS011;59983;52.010;5.420;2023-08-06T00:32:40;6.20;;;5.70;;
72109;SDS011;59983;52.010;5.420;2023-08-06T00:35:07;6.68;;;5.65;;
72109;SDS011;59983;52.010;5.420;2023-08-06T00:37:33;6.20;;;5.70;;
72109;SDS011;59983;52.010;5.420;2023-08-06T00:40:00;9.18;;;6.43;;
72109;SDS011;59983;52.010;5.420;2023-08-06T00:42:26;6.70;;;6.20;;
72109;SDS011;59983;52.010;5.420;2023-08-06T00:44:53;7.00;;;6.38;;
72109;SDS011;59983;52.010;5.420;2023-08-06T00:47:20;6.97;;;6.38;;
72109;SDS011;59983;52.010;5.420;2023-08-06T00:49:46;6.50;;;5.93;;
72109;SDS011;59983;52.010;5.420;2023-08-06T00:52:13;7.90;;;5.95;;
72109;SDS011;59983;52.010;5.420;2023-08-06T00:54:41;6.87;;;6.37;;
72109;SDS011;59983;52.010;5.420;2023-08-06T00:57:08;6.95;;;6.35;;
72109;SDS011;59983;52.010;5.420;2023-08-06T00:59:35;6.85;;;6.25;;
72109;SDS011;59983;52.010;5.420;2023-08-06T01:02:03;6.30;;;5.90;;
72109;SDS011;59983;52.010;5.420;2023-08-06T01:04:29;7.88;;;6.53;;
72109;SDS011;59983;52.010;5.420;2023-08-06T01:09:54;7.13;;;6.47;;
72109;SDS011;59983;52.010;5.420;2023-08-06T01:12:34;7.20;;;6.10;;
72109;SDS011;59983;52.010;5.420;2023-08-06T01:15:07;6.68;;;6.18;;
72109;SDS011;59983;52.010;5.420;2023-08-06T01:17:44;9.82;;;6.22;;
72109;SDS011;59983;52.010;5.420;2023-08-06T01:20:11;6.30;;;5.90;;
72109;SDS011;59983;52.010;5.420;2023-08-06T01:22:38;6.32;;;5.82;;
72109;SDS011;59983;52.010;5.420;2023-08-06T01:25:04;7.78;;;5.80;;
72109;SDS011;59983;52.010;5.420;2023-08-06T01:27:44;7.00;;;6.40;;
72109;SDS011;59983;52.010;5.420;2023-08-06T01:30:27;7.05;;;6.43;;
72109;SDS011;59983;52.010;5.420;2023-08-06T01:33:03;7.13;;;6.53;;
72109;SDS011;59983;52.010;5.420;2023-08-06T01:35:31;8.40;;;6.28;;
72109;SDS011;59983;52.010;5.420;2023-08-06T01:37:59;6.47;;;5.97;;
72109;SDS011;59983;52.010;5.420;2023-08-06T01:40:27;6.85;;;6.20;;
72109;SDS011;59983;52.010;5.420;2023-08-06T01:42:54;8.20;;;6.30;;
72109;SDS011;59983;52.010;5.420;2023-08-06T01:45:21;10.83;;;6.30;;
72109;SDS011;59983;52.010;5.420;2023-08-06T01:47:47;11.43;;;6.78;;
72109;SDS011;59983;52.010;5.420;2023-08-06T01:50:14;7.38;;;6.65;;
72109;SDS011;59983;52.010;5.420;2023-08-06T01:52:41;7.80;;;6.90;;
72109;SDS011;59983;52.010;5.420;2023-08-06T01:55:07;6.57;;;6.07;;
72109;SDS011;59983;52.010;5.420;2023-08-06T01:57:34;7.70;;;7.20;;
72109;SDS011;59983;52.010;5.420;2023-08-06T02:00:00;6.43;;;5.93;;
72109;SDS011;59983;52.010;5.420;2023-08-06T02:02:27;7.97;;;7.38;;
72109;SDS011;59983;52.010;5.420;2023-08-06T02:04:53;8.13;;;7.32;;
72109;SDS011;59983;52.010;5.420;2023-08-06T02:07:20;8.18;;;7.55;;
72109;SDS011;59983;52.010;5.420;2023-08-06T02:09:47;8.07;;;7.47;;
72109;SDS011;59983;52.010;5.420;2023-08-06T02:12:13;8.63;;;7.85;;
72109;SDS011;59983;52.010;5.420;2023-08-06T02:14:40;8.45;;;7.75;;
72109;SDS011;59983;52.010;5.420;2023-08-06T02:17:06;8.48;;;7.82;;
72109;SDS011;59983;52.010;5.420;2023-08-06T02:19:33;8.32;;;7.82;;
72109;SDS011;59983;52.010;5.420;2023-08-06T02:21:59;9.27;;;8.63;;
72109;SDS011;59983;52.010;5.420;2023-08-06T02:24:26;9.15;;;8.55;;
72109;SDS011;59983;52.010;5.420;2023-08-06T02:26:52;8.90;;;8.20;;
72109;SDS011;59983;52.010;5.420;2023-08-06T02:29:22;11.10;;;9.30;;
72109;SDS011;59983;52.010;5.420;2023-08-06T02:31:48;9.38;;;8.57;;
72109;SDS011;59983;52.010;5.420;2023-08-06T02:34:15;10.67;;;9.67;;
72109;SDS011;59983;52.010;5.420;2023-08-06T02:36:41;10.25;;;9.38;;
72109;SDS011;59983;52.010;5.420;2023-08-06T02:39:08;9.98;;;9.27;;
72109;SDS011;59983;52.010;5.420;2023-08-06T02:41:35;10.48;;;9.77;;
72109;SDS011;59983;52.010;5.420;2023-08-06T02:44:01;10.45;;;9.38;;
72109;SDS011;59983;52.010;5.420;2023-08-06T02:46:28;11.53;;;10.63;;
72109;SDS011;59983;52.010;5.420;2023-08-06T02:48:55;10.80;;;9.75;;
72109;SDS011;59983;52.010;5.420;2023-08-06T02:51:21;11.50;;;10.55;;
72109;SDS011;59983;52.010;5.420;2023-08-06T02:53:48;11.70;;;10.75;;
72109;SDS011;59983;52.010;5.420;2023-08-06T02:56:15;12.68;;;11.60;;
72109;SDS011;59983;52.010;5.420;2023-08-06T02:58:42;12.13;;;11.03;;
72109;SDS011;59983;52.010;5.420;2023-08-06T03:01:09;12.30;;;11.13;;
72109;SDS011;59983;52.010;5.420;2023-08-06T03:03:35;11.98;;;10.77;;
72109;SDS011;59983;52.010;5.420;2023-08-06T03:06:02;12.48;;;11.32;;
72109;SDS011;59983;52.010;5.420;2023-08-06T03:08:29;12.15;;;10.98;;
72109;SDS011;59983;52.010;5.420;2023-08-06T03:10:55;15.40;;;12.03;;
72109;SDS011;59983;52.010;5.420;2023-08-06T03:13:22;13.25;;;12.05;;
72109;SDS011;59983;52.010;5.420;2023-08-06T03:15:55;12.90;;;11.65;;
72109;SDS011;59983;52.010;5.420;2023-08-06T03:18:23;13.35;;;12.00;;
72109;SDS011;59983;52.010;5.420;2023-08-06T03:20:49;13.60;;;12.40;;
72109;SDS011;59983;52.010;5.420;2023-08-06T03:23:16;14.03;;;12.83;;
72109;SDS011;59983;52.010;5.420;2023-08-06T03:25:43;13.18;;;11.95;;
72109;SDS011;59983;52.010;5.420;2023-08-06T03:28:10;14.30;;;12.88;;
72109;SDS011;59983;52.010;5.420;2023-08-06T03:30:36;13.02;;;11.95;;
72109;SDS011;59983;52.010;5.420;2023-08-06T03:33:03;12.63;;;11.52;;
72109;SDS011;59983;52.010;5.420;2023-08-06T03:35:30;14.30;;;12.77;;
72109;SDS011;59983;52.010;5.420;2023-08-06T03:37:56;15.52;;;13.00;;
72109;SDS011;59983;52.010;5.420;2023-08-06T03:40:23;15.13;;;12.95;;
72109;SDS011;59983;52.010;5.420;2023-08-06T03:42:49;13.82;;;12.57;;
72109;SDS011;59983;52.010;5.420;2023-08-06T03:45:16;13.70;;;12.40;;
72109;SDS011;59983;52.010;5.420;2023-08-06T03:47:42;17.80;;;13.73;;
72109;SDS011;59983;52.010;5.420;2023-08-06T03:50:09;13.45;;;12.25;;
72109;SDS011;59983;52.010;5.420;2023-08-06T03:52:36;13.35;;;12.15;;
72109;SDS011;59983;52.010;5.420;2023-08-06T03:55:03;13.05;;;11.85;;
72109;SDS011;59983;52.010;5.420;2023-08-06T03:57:29;14.95;;;12.05;;
72109;SDS011;59983;52.010;5.420;2023-08-06T03:59:56;13.23;;;11.27;;
72109;SDS011;59983;52.010;5.420;2023-08-06T04:02:22;12.70;;;11.55;;
72109;SDS011;59983;52.010;5.420;2023-08-06T04:04:49;12.63;;;10.45;;
72109;SDS011;59983;52.010;5.420;2023-08-06T04:07:16;14.43;;;10.88;;
72109;SDS011;59983;52.010;5.420;2023-08-06T04:09:52;11.35;;;10.45;;
72109;SDS011;59983;52.010;5.420;2023-08-06T04:12:19;13.00;;;11.73;;
72109;SDS011;59983;52.010;5.420;2023-08-06T04:14:48;13.48;;;11.85;;
72109;SDS011;59983;52.010;5.420;2023-08-06T04:17:17;13.55;;;10.90;;
72109;SDS011;59983;52.010;5.420;2023-08-06T04:19:47;14.88;;;12.02;;
72109;SDS011;59983;52.010;5.420;2023-08-06T04:22:15;12.98;;;11.68;;
72109;SDS011;59983;52.010;5.420;2023-08-06T04:24:42;14.07;;;12.77;;
72109;SDS011;59983;52.010;5.420;2023-08-06T04:27:09;13.13;;;11.85;;
72109;SDS011;59983;52.010;5.420;2023-08-06T04:29:37;12.18;;;10.95;;
72109;SDS011;59983;52.010;5.420;2023-08-06T04:32:05;12.57;;;11.48;;
72109;SDS011;59983;52.010;5.420;2023-08-06T04:34:32;13.60;;;12.25;;
72109;SDS011;59983;52.010;5.420;2023-08-06T04:37:00;12.80;;;11.27;;
72109;SDS011;59983;52.010;5.420;2023-08-06T04:39:27;12.20;;;11.13;;
72109;SDS011;59983;52.010;5.420;2023-08-06T04:41:53;13.40;;;11.88;;
72109;SDS011;59983;52.010;5.420;2023-08-06T04:44:21;13.82;;;10.80;;
72109;SDS011;59983;52.010;5.420;2023-08-06T04:46:47;13.43;;;11.77;;
72109;SDS011;59983;52.010;5.420;2023-08-06T04:49:14;13.63;;;12.33;;
72109;SDS011;59983;52.010;5.420;2023-08-06T04:51:40;16.10;;;13.27;;
72109;SDS011;59983;52.010;5.420;2023-08-06T04:54:07;17.05;;;12.20;;
72109;SDS011;59983;52.010;5.420;2023-08-06T04:56:34;13.95;;;12.63;;
72109;SDS011;59983;52.010;5.420;2023-08-06T04:59:00;13.23;;;11.98;;
72109;SDS011;59983;52.010;5.420;2023-08-06T05:01:27;13.57;;;12.20;;
72109;SDS011;59983;52.010;5.420;2023-08-06T05:03:54;14.18;;;12.77;;
72109;SDS011;59983;52.010;5.420;2023-08-06T05:06:21;12.90;;;11.65;;
72109;SDS011;59983;52.010;5.420;2023-08-06T05:08:48;14.68;;;13.27;;
72109;SDS011;59983;52.010;5.420;2023-08-06T05:11:14;13.90;;;12.48;;
72109;SDS011;59983;52.010;5.420;2023-08-06T05:13:41;15.83;;;12.03;;
72109;SDS011;59983;52.010;5.420;2023-08-06T05:16:07;12.95;;;11.65;;
72109;SDS011;59983;52.010;5.420;2023-08-06T05:18:34;14.25;;;12.95;;
72109;SDS011;59983;52.010;5.420;2023-08-06T05:21:00;13.90;;;12.43;;
72109;SDS011;59983;52.010;5.420;2023-08-06T05:23:27;13.90;;;12.48;;
72109;SDS011;59983;52.010;5.420;2023-08-06T05:25:54;15.20;;;13.90;;
72109;SDS011;59983;52.010;5.420;2023-08-06T05:28:20;15.95;;;14.02;;
72109;SDS011;59983;52.010;5.420;2023-08-06T05:30:47;14.75;;;13.25;;
72109;SDS011;59983;52.010;5.420;2023-08-06T05:33:13;16.48;;;14.77;;
72109;SDS011;59983;52.010;5.420;2023-08-06T05:35:40;16.30;;;13.55;;
72109;SDS011;59983;52.010;5.420;2023-08-06T05:38:08;16.37;;;14.43;;
72109;SDS011;59983;52.010;5.420;2023-08-06T05:40:34;15.82;;;14.18;;
72109;SDS011;59983;52.010;5.420;2023-08-06T05:43:01;18.63;;;14.23;;
72109;SDS011;59983;52.010;5.420;2023-08-06T05:45:27;14.93;;;13.20;;
72109;SDS011;59983;52.010;5.420;2023-08-06T05:47:54;15.15;;;13.65;;
72109;SDS011;59983;52.010;5.420;2023-08-06T05:50:24;15.77;;;14.17;;
72109;SDS011;59983;52.010;5.420;2023-08-06T05:52:51;15.63;;;14.00;;
72109;SDS011;59983;52.010;5.420;2023-08-06T05:55:18;17.98;;;13.95;;
72109;SDS011;59983;52.010;5.420;2023-08-06T05:57:46;15.70;;;14.13;;
72109;SDS011;59983;52.010;5.420;2023-08-06T06:00:12;19.25;;;15.77;;
72109;SDS011;59983;52.010;5.420;2023-08-06T06:02:39;16.80;;;14.23;;
72109;SDS011;59983;52.010;5.420;2023-08-06T06:05:06;19.25;;;14.45;;
72109;SDS011;59983;52.010;5.420;2023-08-06T06:07:33;16.02;;;14.43;;
72109;SDS011;59983;52.010;5.420;2023-08-06T06:09:59;16.92;;;14.98;;
72109;SDS011;59983;52.010;5.420;2023-08-06T06:12:26;16.45;;;14.85;;
72109;SDS011;59983;52.010;5.420;2023-08-06T06:14:52;16.33;;;14.67;;
72109;SDS011;59983;52.010;5.420;2023-08-06T06:17:19;16.52;;;14.98;;
72109;SDS011;59983;52.010;5.420;2023-08-06T06:19:46;19.48;;;15.25;;
72109;SDS011;59983;52.010;5.420;2023-08-06T06:22:13;16.20;;;14.50;;
72109;SDS011;59983;52.010;5.420;2023-08-06T06:24:40;16.77;;;14.98;;
72109;SDS011;59983;52.010;5.420;2023-08-06T06:27:07;18.73;;;14.90;;
72109;SDS011;59983;52.010;5.420;2023-08-06T06:29:33;17.58;;;15.25;;
72109;SDS011;59983;52.010;5.420;2023-08-06T06:32:00;17.40;;;15.15;;
72109;SDS011;59983;52.010;5.420;2023-08-06T06:34:26;16.10;;;14.55;;
72109;SDS011;59983;52.010;5.420;2023-08-06T06:36:53;19.92;;;15.52;;
72109;SDS011;59983;52.010;5.420;2023-08-06T06:39:20;17.67;;;15.87;;
72109;SDS011;59983;52.010;5.420;2023-08-06T06:41:47;18.75;;;15.73;;
72109;SDS011;59983;52.010;5.420;2023-08-06T06:44:14;16.38;;;14.55;;
72109;SDS011;59983;52.010;5.420;2023-08-06T06:46:41;17.80;;;15.50;;
72109;SDS011;59983;52.010;5.420;2023-08-06T06:49:07;16.48;;;14.68;;
72109;SDS011;59983;52.010;5.420;2023-08-06T06:51:34;18.60;;;15.47;;
72109;SDS011;59983;52.010;5.420;2023-08-06T06:54:02;19.52;;;15.05;;
72109;SDS011;59983;52.010;5.420;2023-08-06T06:56:29;17.73;;;14.80;;
72109;SDS011;59983;52.010;5.420;2023-08-06T06:58:55;18.48;;;14.50;;
72109;SDS011;59983;52.010;5.420;2023-08-06T07:01:22;16.80;;;15.00;;
72109;SDS011;59983;52.010;5.420;2023-08-06T07:03:48;17.27;;;14.67;;
72109;SDS011;59983;52.010;5.420;2023-08-06T07:06:15;18.27;;;13.80;;
72109;SDS011;59983;52.010;5.420;2023-08-06T07:08:42;14.80;;;13.35;;
72109;SDS011;59983;52.010;5.420;2023-08-06T07:11:08;15.93;;;14.18;;
72109;SDS011;59983;52.010;5.420;2023-08-06T07:13:35;14.85;;;13.38;;
72109;SDS011;59983;52.010;5.420;2023-08-06T07:16:01;15.60;;;14.00;;
72109;SDS011;59983;52.010;5.420;2023-08-06T07:18:28;15.50;;;13.75;;
72109;SDS011;59983;52.010;5.420;2023-08-06T07:20:56;16.17;;;13.48;;
72109;SDS011;59983;52.010;5.420;2023-08-06T07:23:23;14.32;;;12.98;;
72109;SDS011;59983;52.010;5.420;2023-08-06T07:25:51;14.85;;;13.32;;
72109;SDS011;59983;52.010;5.420;2023-08-06T07:28:18;13.23;;;12.03;;
72109;SDS011;59983;52.010;5.420;2023-08-06T07:30:45;12.43;;;11.13;;
72109;SDS011;59983;52.010;5.420;2023-08-06T07:33:12;9.25;;;8.38;;
72109;SDS011;59983;52.010;5.420;2023-08-06T07:35:39;9.00;;;8.30;;
72109;SDS011;59983;52.010;5.420;2023-08-06T07:38:05;8.25;;;7.63;;
72109;SDS011;59983;52.010;5.420;2023-08-06T07:40:32;5.60;;;4.97;;
72109;SDS011;59983;52.010;5.420;2023-08-06T07:43:01;4.32;;;4.03;;
72109;SDS011;59983;52.010;5.420;2023-08-06T07:45:27;4.22;;;3.95;;
72109;SDS011;59983;52.010;5.420;2023-08-06T07:47:54;4.20;;;3.90;;
72109;SDS011;59983;52.010;5.420;2023-08-06T07:50:21;3.38;;;3.13;;
72109;SDS011;59983;52.010;5.420;2023-08-06T07:52:47;3.73;;;3.53;;
72109;SDS011;59983;52.010;5.420;2023-08-06T07:55:14;3.88;;;3.67;;
72109;SDS011;59983;52.010;5.420;2023-08-06T07:57:41;5.95;;;3.67;;
72109;SDS011;59983;52.010;5.420;2023-08-06T08:00:08;4.30;;;4.10;;
72109;SDS011;59983;52.010;5.420;2023-08-06T08:02:36;3.95;;;3.75;;
72109;SDS011;59983;52.010;5.420;2023-08-06T08:05:02;4.77;;;4.57;;
72109;SDS011;59983;52.010;5.420;2023-08-06T08:07:29;4.93;;;4.63;;
72109;SDS011;59983;52.010;5.420;2023-08-06T08:09:56;4.75;;;4.38;;
72109;SDS011;59983;52.010;5.420;2023-08-06T08:12:23;4.75;;;4.55;;
72109;SDS011;59983;52.010;5.420;2023-08-06T08:14:50;5.90;;;5.47;;
72109;SDS011;59983;52.010;5.420;2023-08-06T08:17:17;5.57;;;5.17;;
72109;SDS011;59983;52.010;5.420;2023-08-06T08:19:43;5.47;;;5.18;;
72109;SDS011;59983;52.010;5.420;2023-08-06T08:22:10;6.10;;;5.68;;
72109;SDS011;59983;52.010;5.420;2023-08-06T08:24:37;6.50;;;6.10;;
72109;SDS011;59983;52.010;5.420;2023-08-06T08:27:03;10.10;;;5.43;;
72109;SDS011;59983;52.010;5.420;2023-08-06T08:29:30;5.60;;;5.20;;
72109;SDS011;59983;52.010;5.420;2023-08-06T08:31:57;5.30;;;4.80;;
72109;SDS011;59983;52.010;5.420;2023-08-06T08:34:23;5.15;;;4.85;;
72109;SDS011;59983;52.010;5.420;2023-08-06T08:36:50;5.53;;;5.22;;
72109;SDS011;59983;52.010;5.420;2023-08-06T08:39:17;5.28;;;4.85;;
72109;SDS011;59983;52.010;5.420;2023-08-06T08:41:43;5.53;;;5.20;;
72109;SDS011;59983;52.010;5.420;2023-08-06T08:44:10;6.32;;;5.38;;
72109;SDS011;59983;52.010;5.420;2023-08-06T08:46:40;9.05;;;5.65;;
72109;SDS011;59983;52.010;5.420;2023-08-06T08:49:07;5.60;;;4.82;;
72109;SDS011;59983;52.010;5.420;2023-08-06T08:51:34;8.50;;;6.13;;
72109;SDS011;59983;52.010;5.420;2023-08-06T08:54:02;10.27;;;6.27;;
72109;SDS011;59983;52.010;5.420;2023-08-06T08:56:30;11.20;;;6.90;;
72109;SDS011;59983;52.010;5.420;2023-08-06T08:58:58;7.03;;;6.60;;
72109;SDS011;59983;52.010;5.420;2023-08-06T09:01:26;7.60;;;7.10;;
72109;SDS011;59983;52.010;5.420;2023-08-06T09:03:54;8.32;;;7.63;;
72109;SDS011;59983;52.010;5.420;2023-08-06T09:06:22;9.10;;;8.07;;
72109;SDS011;59983;52.010;5.420;2023-08-06T09:08:56;7.90;;;7.20;;
72109;SDS011;59983;52.010;5.420;2023-08-06T09:11:33;8.18;;;7.68;;
72109;SDS011;59983;52.010;5.420;2023-08-06T09:14:07;8.80;;;8.20;;
72109;SDS011;59983;52.010;5.420;2023-08-06T09:16:35;9.07;;;8.30;;
72109;SDS011;59983;52.010;5.420;2023-08-06T09:19:08;12.30;;;7.47;;
72109;SDS011;59983;52.010;5.420;2023-08-06T09:21:47;8.65;;;7.85;;
72109;SDS011;59983;52.010;5.420;2023-08-06T09:24:17;8.95;;;8.15;;
72109;SDS011;59983;52.010;5.420;2023-08-06T09:26:44;8.95;;;8.20;;
72109;SDS011;59983;52.010;5.420;2023-08-06T09:29:11;8.80;;;7.93;;
72109;SDS011;59983;52.010;5.420;2023-08-06T09:31:41;8.97;;;8.00;;
72109;SDS011;59983;52.010;5.420;2023-08-06T09:36:43;9.05;;;8.07;;
72109;SDS011;59983;52.010;5.420;2023-08-06T09:39:16;8.15;;;7.35;;
72109;SDS011;59983;52.010;5.420;2023-08-06T09:41:47;8.70;;;7.90;;
72109;SDS011;59983;52.010;5.420;2023-08-06T09:44:18;10.40;;;9.50;;
72109;SDS011;59983;52.010;5.420;2023-08-06T09:46:49;13.15;;;8.77;;
72109;SDS011;59983;52.010;5.420;2023-08-06T09:49:18;8.77;;;8.20;;
72109;SDS011;59983;52.010;5.420;2023-08-06T09:51:48;9.55;;;8.85;;
72109;SDS011;59983;52.010;5.420;2023-08-06T09:54:18;8.20;;;7.60;;
72109;SDS011;59983;52.010;5.420;2023-08-06T09:56:53;9.10;;;8.27;;
72109;SDS011;59983;52.010;5.420;2023-08-06T09:59:20;8.75;;;7.85;;
72109;SDS011;59983;52.010;5.420;2023-08-06T10:01:47;8.77;;;8.02;;
72109;SDS011;59983;52.010;5.420;2023-08-06T10:04:14;8.35;;;7.00;;
72109;SDS011;59983;52.010;5.420;2023-08-06T10:06:50;6.55;;;6.15;;
72109;SDS011;59983;52.010;5.420;2023-08-06T10:09:16;7.67;;;6.97;;
72109;SDS011;59983;52.010;5.420;2023-08-06T10:11:47;8.95;;;7.15;;
72109;SDS011;59983;52.010;5.420;2023-08-06T10:14:33;7.95;;;7.25;;
72109;SDS011;59983;52.010;5.420;2023-08-06T10:17:03;8.20;;;7.50;;
72109;SDS011;59983;52.010;5.420;2023-08-06T10:19:32;8.20;;;6.72;;
72109;SDS011;59983;52.010;5.420;2023-08-06T10:22:12;7.50;;;6.77;;
72109;SDS011;59983;52.010;5.420;2023-08-06T10:24:48;9.30;;;8.50;;
72109;SDS011;59983;52.010;5.420;2023-08-06T10:29:54;8.73;;;8.02;;
72109;SDS011;59983;52.010;5.420;2023-08-06T10:32:38;8.48;;;7.68;;
72109;SDS011;59983;52.010;5.420;2023-08-06T10:35:27;14.60;;;6.90;;
72109;SDS011;59983;52.010;5.420;2023-08-06T10:38:11;7.47;;;6.20;;
72109;SDS011;59983;52.010;5.420;2023-08-06T10:43:27;8.30;;;7.55;;
72109;SDS011;59983;52.010;5.420;2023-08-06T10:45:58;7.35;;;6.75;;
72109;SDS011;59983;52.010;5.420;2023-08-06T10:51:10;7.32;;;6.85;;
72109;SDS011;59983;52.010;5.420;2023-08-06T10:53:41;7.57;;;6.60;;
72109;SDS011;59983;52.010;5.420;2023-08-06T10:56:14;7.70;;;7.00;;
72109;SDS011;59983;52.010;5.420;2023-08-06T10:58:53;7.00;;;6.38;;
72109;SDS011;59983;52.010;5.420;2023-08-06T11:01:23;10.63;;;7.40;;
72109;SDS011;59983;52.010;5.420;2023-08-06T11:03:50;7.93;;;6.22;;
72109;SDS011;59983;52.010;5.420;2023-08-06T11:06:20;7.30;;;6.70;;
72109;SDS011;59983;52.010;5.420;2023-08-06T11:08:48;7.93;;;6.80;;
72109;SDS011;59983;52.010;5.420;2023-08-06T11:11:16;7.55;;;6.95;;
72109;SDS011;59983;52.010;5.420;2023-08-06T11:13:44;8.50;;;6.70;;
72109;SDS011;59983;52.010;5.420;2023-08-06T11:16:17;6.97;;;6.47;;
72109;SDS011;59983;52.010;5.420;2023-08-06T11:18:45;6.35;;;5.90;;
72109;SDS011;59983;52.010;5.420;2023-08-06T11:21:12;6.93;;;5.72;;
72109;SDS011;59983;52.010;5.420;2023-08-06T11:23:40;6.88;;;6.22;;
72109;SDS011;59983;52.010;5.420;2023-08-06T11:26:07;6.40;;;5.90;;
72109;SDS011;59983;52.010;5.420;2023-08-06T11:28:34;7.25;;;6.57;;
72109;SDS011;59983;52.010;5.420;2023-08-06T11:31:00;9.07;;;5.70;;
72109;SDS011;59983;52.010;5.420;2023-08-06T11:33:28;7.78;;;6.90;;
72109;SDS011;59983;52.010;5.420;2023-08-06T11:35:56;9.18;;;5.78;;
72109;SDS011;59983;52.010;5.420;2023-08-06T11:38:28;7.10;;;6.47;;
72109;SDS011;59983;52.010;5.420;2023-08-06T11:40:55;6.40;;;5.50;;
72109;SDS011;59983;52.010;5.420;2023-08-06T11:43:22;5.93;;;5.43;;
72109;SDS011;59983;52.010;5.420;2023-08-06T11:45:49;5.50;;;5.20;;
72109;SDS011;59983;52.010;5.420;2023-08-06T11:48:17;5.75;;;5.18;;
72109;SDS011;59983;52.010;5.420;2023-08-06T11:50:44;6.13;;;5.43;;
72109;SDS011;59983;52.010;5.420;2023-08-06T11:53:14;5.20;;;4.82;;
72109;SDS011;59983;52.010;5.420;2023-08-06T11:55:41;4.65;;;4.35;;
72109;SDS011;59983;52.010;5.420;2023-08-06T11:58:09;4.45;;;4.20;;
72109;SDS011;59983;52.010;5.420;2023-08-06T12:00:38;5.35;;;4.53;;
72109;SDS011;59983;52.010;5.420;2023-08-06T12:03:05;5.90;;;4.07;;
72109;SDS011;59983;52.010;5.420;2023-08-06T12:05:32;4.15;;;3.78;;
72109;SDS011;59983;52.010;5.420;2023-08-06T12:08:02;4.68;;;4.05;;
72109;SDS011;59983;52.010;5.420;2023-08-06T12:10:29;4.28;;;4.07;;
72109;SDS011;59983;52.010;5.420;2023-08-06T12:12:57;5.25;;;4.72;;
72109;SDS011;59983;52.010;5.420;2023-08-06T12:15:24;5.30;;;3.70;;
72109;SDS011;59983;52.010;5.420;2023-08-06T12:17:51;4.45;;;3.85;;
72109;SDS011;59983;52.010;5.420;2023-08-06T12:20:17;5.55;;;5.05;;
72109;SDS011;59983;52.010;5.420;2023-08-06T12:22:44;3.95;;;3.58;;
72109;SDS011;59983;52.010;5.420;2023-08-06T12:25:12;4.38;;;3.80;;
72109;SDS011;59983;52.010;5.420;2023-08-06T12:27:43;4.10;;;3.70;;
72109;SDS011;59983;52.010;5.420;2023-08-06T12:30:11;4.88;;;4.35;;
72109;SDS011;59983;52.010;5.420;2023-08-06T12:32:39;4.90;;;4.40;;
72109;SDS011;59983;52.010;5.420;2023-08-06T12:35:06;5.07;;;4.60;;
72109;SDS011;59983;52.010;5.420;2023-08-06T12:37:34;5.18;;;4.63;;
72109;SDS011;59983;52.010;5.420;2023-08-06T12:40:01;3.90;;;3.47;;
72109;SDS011;59983;52.010;5.420;2023-08-06T12:42:47;5.97;;;3.60;;
72109;SDS011;59983;52.010;5.420;2023-08-06T12:45:15;4.45;;;4.03;;
72109;SDS011;59983;52.010;5.420;2023-08-06T12:47:41;4.53;;;3.88;;
72109;SDS011;59983;52.010;5.420;2023-08-06T12:50:09;5.00;;;4.40;;
72109;SDS011;59983;52.010;5.420;2023-08-06T12:52:35;4.57;;;4.17;;
72109;SDS011;59983;52.010;5.420;2023-08-06T12:55:02;5.97;;;3.60;;
72109;SDS011;59983;52.010;5.420;2023-08-06T12:57:29;3.33;;;3.13;;
72109;SDS011;59983;52.010;5.420;2023-08-06T13:00:16;3.92;;;3.42;;
72109;SDS011;59983;52.010;5.420;2023-08-06T13:02:42;3.97;;;3.67;;
72109;SDS011;59983;52.010;5.420;2023-08-06T13:05:09;4.53;;;4.00;;
72109;SDS011;59983;52.010;5.420;2023-08-06T13:07:36;4.53;;;4.22;;
72109;SDS011;59983;52.010;5.420;2023-08-06T13:10:02;6.68;;;3.88;;
72109;SDS011;59983;52.010;5.420;2023-08-06T13:12:30;5.60;;;4.15;;
72109;SDS011;59983;52.010;5.420;2023-08-06T13:14:56;4.55;;;4.25;;
72109;SDS011;59983;52.010;5.420;2023-08-06T13:17:25;4.83;;;4.37;;
72109;SDS011;59983;52.010;5.420;2023-08-06T13:19:53;4.53;;;4.10;;
72109;SDS011;59983;52.010;5.420;2023-08-06T13:22:19;7.00;;;4.50;;
72109;SDS011;59983;52.010;5.420;2023-08-06T13:24:46;7.00;;;4.38;;
72109;SDS011;59983;52.010;5.420;2023-08-06T13:27:13;5.28;;;4.70;;
72109;SDS011;59983;52.010;5.420;2023-08-06T13:29:39;5.23;;;4.47;;
72109;SDS011;59983;52.010;5.420;2023-08-06T13:32:06;5.20;;;4.70;;
72109;SDS011;59983;52.010;5.420;2023-08-06T13:34:32;5.47;;;4.97;;
72109;SDS011;59983;52.010;5.420;2023-08-06T13:36:59;6.72;;;4.78;;
72109;SDS011;59983;52.010;5.420;2023-08-06T13:39:26;4.70;;;4.40;;
72109;SDS011;59983;52.010;5.420;2023-08-06T13:41:52;4.10;;;3.80;;
72109;SDS011;59983;52.010;5.420;2023-08-06T13:44:19;5.88;;;4.53;;
72109;SDS011;59983;52.010;5.420;2023-08-06T13:46:45;5.60;;;4.38;;
72109;SDS011;59983;52.010;5.420;2023-08-06T13:49:12;5.43;;;3.83;;
72109;SDS011;59983;52.010;5.420;2023-08-06T13:51:38;4.30;;;4.00;;
72109;SDS011;59983;52.010;5.420;2023-08-06T13:54:05;8.83;;;4.77;;
72109;SDS011;59983;52.010;5.420;2023-08-06T13:56:32;5.60;;;4.15;;
72109;SDS011;59983;52.010;5.420;2023-08-06T13:58:59;9.55;;;4.28;;
72109;SDS011;59983;52.010;5.420;2023-08-06T14:01:26;4.88;;;4.22;;
72109;SDS011;59983;52.010;5.420;2023-08-06T14:04:13;5.10;;;3.65;;
72109;SDS011;59983;52.010;5.420;2023-08-06T14:06:39;6.13;;;4.20;;
72109;SDS011;59983;52.010;5.420;2023-08-06T14:09:06;4.45;;;4.05;;
72109;SDS011;59983;52.010;5.420;2023-08-06T14:11:34;4.43;;;4.03;;
72109;SDS011;59983;52.010;5.420;2023-08-06T14:14:00;4.38;;;4.00;;
72109;SDS011;59983;52.010;5.420;2023-08-06T14:16:29;4.47;;;4.07;;
72109;SDS011;59983;52.010;5.420;2023-08-06T14:18:56;5.13;;;4.40;;
72109;SDS011;59983;52.010;5.420;2023-08-06T14:21:22;6.03;;;4.50;;
72109;SDS011;59983;52.010;5.420;2023-08-06T14:23:49;7.72;;;5.05;;
72109;SDS011;59983;52.010;5.420;2023-08-06T14:26:15;6.15;;;5.57;;
72109;SDS011;59983;52.010;5.420;2023-08-06T14:28:43;5.78;;;5.45;;
72109;SDS011;59983;52.010;5.420;2023-08-06T14:31:10;6.07;;;5.67;;
72109;SDS011;59983;52.010;5.420;2023-08-06T14:33:36;5.30;;;4.88;;
72109;SDS011;59983;52.010;5.420;2023-08-06T14:36:03;5.35;;;4.93;;
72109;SDS011;59983;52.010;5.420;2023-08-06T14:38:30;5.72;;;5.25;;
72109;SDS011;59983;52.010;5.420;2023-08-06T14:40:56;7.50;;;5.03;;
72109;SDS011;59983;52.010;5.420;2023-08-06T14:43:23;6.47;;;5.00;;
72109;SDS011;59983;52.010;5.420;2023-08-06T14:45:49;6.25;;;5.72;;
72109;SDS011;59983;52.010;5.420;2023-08-06T14:48:16;7.50;;;5.35;;
72109;SDS011;59983;52.010;5.420;2023-08-06T14:50:43;5.03;;;4.63;;
72109;SDS011;59983;52.010;5.420;2023-08-06T14:53:10;5.75;;;5.05;;
72109;SDS011;59983;52.010;5.420;2023-08-06T14:55:38;6.43;;;5.83;;